sensor_id;sensor_type;location;lat;lon;timestamp;pressure;altitude;pressure_sealevel;temperature;humidity
1832;BME280;1680;48.106;11.708;2023-02-26T00:00:06;94643.97;;;0.86;100.00
1832;BME280;1680;48.106;11.708;2023-02-26T00:02:36;94646.34;;;0.81;100.00
1832;BME280;1680;48.106;11.708;2023-02-26T00:05:04;94661.81;;;0.81;100.00
1832;BME280;1680;48.106;11.708;2023-02-26T00:07:32;94657.38;;;0.75;100.00
1832;BME280;1680;48.106;11.708;2023-02-26T00:10:00;94657.66;;;0.80;100.00
1832;BME280;1680;48.106;11.708;2023-02-26T00:12:30;94656.03;;;0.79;100.00
1832;BME280;1680;48.106;11.708;2023-02-26T00:14:57;94656.28;;;0.84;100.00
1832;BME280;1680;48.106;11.708;2023-02-26T00:17:41;94658.38;;;0.74;100.00
1832;BME280;1680;48.106;11.708;2023-02-26T00:20:11;94653.81;;;0.76;100.00
1832;BME280;1680;48.106;11.708;2023-02-26T00:22:41;94653.22;;;0.74;100.00
1832;BME280;1680;48.106;11.708;2023-02-26T00:25:09;94664.41;;;0.81;100.00
1832;BME280;1680;48.106;11.708;2023-02-26T00:27:39;94663.03;;;0.64;100.00
1832;BME280;1680;48.106;11.708;2023-02-26T00:30:08;94662.84;;;0.66;100.00
1832;BME280;1680;48.106;11.708;2023-02-26T00:32:36;94646.19;;;0.68;100.00
1832;BME280;1680;48.106;11.708;2023-02-26T00:35:06;94676.91;;;0.84;100.00
1832;BME280;1680;48.106;11.708;2023-02-26T00:40:37;94670.41;;;0.67;100.00
1832;BME280;1680;48.106;11.708;2023-02-26T00:43:12;94672.72;;;0.83;100.00
1832;BME280;1680;48.106;11.708;2023-02-26T00:45:43;94677.09;;;0.83;100.00
1832;BME280;1680;48.106;11.708;2023-02-26T00:48:21;94678.41;;;0.93;100.00
1832;BME280;1680;48.106;11.708;2023-02-26T00:50:58;94680.47;;;0.83;100.00
1832;BME280;1680;48.106;11.708;2023-02-26T00:53:33;94680.88;;;0.80;100.00
1832;BME280;1680;48.106;11.708;2023-02-26T00:56:02;94685.69;;;0.69;100.00
1832;BME280;1680;48.106;11.708;2023-02-26T00:58:31;94683.13;;;0.69;100.00
1832;BME280;1680;48.106;11.708;2023-02-26T01:00:58;94680.59;;;0.75;100.00
1832;BME280;1680;48.106;11.708;2023-02-26T01:03:26;94685.69;;;0.69;100.00
1832;BME280;1680;48.106;11.708;2023-02-26T01:05:54;94677.91;;;0.62;100.00
1832;BME280;1680;48.106;11.708;2023-02-26T01:08:24;94674.22;;;0.50;100.00
1832;BME280;1680;48.106;11.708;2023-02-26T01:10:54;94678.91;;;0.47;100.00
1832;BME280;1680;48.106;11.708;2023-02-26T01:13:22;94657.91;;;0.50;100.00
1832;BME280;1680;48.106;11.708;2023-02-26T01:15:54;94682.03;;;0.42;100.00
1832;BME280;1680;48.106;11.708;2023-02-26T01:18:27;94658.97;;;0.34;100.00
1832;BME280;1680;48.106;11.708;2023-02-26T01:21:02;94682.47;;;0.46;100.00
1832;BME280;1680;48.106;11.708;2023-02-26T01:23:32;94675.25;;;0.56;100.00
1832;BME280;1680;48.106;11.708;2023-02-26T01:26:06;94653.19;;;0.32;100.00
1832;BME280;1680;48.106;11.708;2023-02-26T01:28:35;94685.00;;;0.60;100.00
1832;BME280;1680;48.106;11.708;2023-02-26T01:31:06;94684.94;;;0.54;100.00
1832;BME280;1680;48.106;11.708;2023-02-26T01:33:40;94682.75;;;0.72;100.00
1832;BME280;1680;48.106;11.708;2023-02-26T01:36:16;94685.28;;;0.65;100.00
1832;BME280;1680;48.106;11.708;2023-02-26T01:38:51;94681.47;;;0.61;100.00
1832;BME280;1680;48.106;11.708;2023-02-26T01:41:29;94677.91;;;0.62;100.00
1832;BME280;1680;48.106;11.708;2023-02-26T01:44:08;94686.25;;;0.85;100.00
1832;BME280;1680;48.106;11.708;2023-02-26T01:46:53;94689.44;;;0.87;100.00
1832;BME280;1680;48.106;11.708;2023-02-26T01:49:23;94698.66;;;0.75;100.00
1832;BME280;1680;48.106;11.708;2023-02-26T01:51:53;94698.16;;;0.65;100.00
1832;BME280;1680;48.106;11.708;2023-02-26T01:54:23;94686.69;;;0.32;100.00
1832;BME280;1680;48.106;11.708;2023-02-26T01:56:58;94692.00;;;0.45;100.00
1832;BME280;1680;48.106;11.708;2023-02-26T01:59:29;94694.78;;;0.29;100.00
1832;BME280;1680;48.106;11.708;2023-02-26T02:02:00;94699.59;;;0.18;100.00
1832;BME280;1680;48.106;11.708;2023-02-26T02:04:29;94608.31;;;-0.37;100.00
1832;BME280;1680;48.106;11.708;2023-02-26T02:06:59;94700.06;;;0.21;100.00
1832;BME280;1680;48.106;11.708;2023-02-26T02:09:26;94677.91;;;0.12;100.00
1832;BME280;1680;48.106;11.708;2023-02-26T02:12:07;94702.88;;;0.26;100.00
1832;BME280;1680;48.106;11.708;2023-02-26T02:14:45;94711.50;;;0.33;100.00
1832;BME280;1680;48.106;11.708;2023-02-26T02:17:22;94708.03;;;0.26;100.00
1832;BME280;1680;48.106;11.708;2023-02-26T02:20:21;94713.72;;;0.36;100.00
1832;BME280;1680;48.106;11.708;2023-02-26T02:23:01;94716.03;;;0.31;100.00
1832;BME280;1680;48.106;11.708;2023-02-26T02:25:49;94717.50;;;0.40;100.00
1832;BME280;1680;48.106;11.708;2023-02-26T02:28:33;94716.03;;;0.31;100.00
1832;BME280;1680;48.106;11.708;2023-02-26T02:31:07;94719.38;;;0.32;100.00
1832;BME280;1680;48.106;11.708;2023-02-26T02:33:45;94724.31;;;0.27;100.00
1832;BME280;1680;48.106;11.708;2023-02-26T02:36:19;94725.09;;;0.42;100.00
1832;BME280;1680;48.106;11.708;2023-02-26T02:38:53;94736.56;;;0.25;100.00
1832;BME280;1680;48.106;11.708;2023-02-26T02:41:26;94734.53;;;0.20;100.00
1832;BME280;1680;48.106;11.708;2023-02-26T02:43:59;94724.25;;;-0.08;100.00
1832;BME280;1680;48.106;11.708;2023-02-26T02:46:30;94734.53;;;0.06;100.00
1832;BME280;1680;48.106;11.708;2023-02-26T02:49:01;94735.69;;;0.03;100.00
1832;BME280;1680;48.106;11.708;2023-02-26T02:51:31;94733.47;;;0.00;100.00
1832;BME280;1680;48.106;11.708;2023-02-26T02:54:05;94735.31;;;-0.22;100.00
1832;BME280;1680;48.106;11.708;2023-02-26T02:56:36;94739.50;;;-0.21;100.00
1832;BME280;1680;48.106;11.708;2023-02-26T02:59:10;94756.44;;;-0.27;100.00
1832;BME280;1680;48.106;11.708;2023-02-26T03:01:41;94744.19;;;-0.25;100.00
1832;BME280;1680;48.106;11.708;2023-02-26T03:04:12;94750.44;;;-0.05;100.00
1832;BME280;1680;48.106;11.708;2023-02-26T03:06:40;94750.69;;;-0.14;100.00
1832;BME280;1680;48.106;11.708;2023-02-26T03:09:09;94750.97;;;-0.09;100.00
1832;BME280;1680;48.106;11.708;2023-02-26T03:11:37;94750.59;;;-0.21;100.00
1832;BME280;1680;48.106;11.708;2023-02-26T03:14:05;94760.91;;;-0.21;100.00
1832;BME280;1680;48.106;11.708;2023-02-26T03:16:51;94748.03;;;-0.21;100.00
1832;BME280;1680;48.106;11.708;2023-02-26T03:19:28;94751.78;;;-0.23;100.00
1832;BME280;1680;48.106;11.708;2023-02-26T03:22:02;94770.50;;;-0.29;100.00
1832;BME280;1680;48.106;11.708;2023-02-26T03:24:35;94771.38;;;-0.37;100.00
1832;BME280;1680;48.106;11.708;2023-02-26T03:27:09;94778.03;;;-0.42;100.00
1832;BME280;1680;48.106;11.708;2023-02-26T03:29:42;94773.56;;;-0.48;100.00
1832;BME280;1680;48.106;11.708;2023-02-26T03:32:18;94780.41;;;-0.41;100.00
1832;BME280;1680;48.106;11.708;2023-02-26T03:34:49;94776.13;;;-0.48;100.00
1832;BME280;1680;48.106;11.708;2023-02-26T03:37:22;94766.75;;;-0.27;100.00
1832;BME280;1680;48.106;11.708;2023-02-26T03:39:54;94772.63;;;-0.33;100.00
1832;BME280;1680;48.106;11.708;2023-02-26T03:42:27;94784.88;;;-0.20;100.00
1832;BME280;1680;48.106;11.708;2023-02-26T03:44:57;94787.47;;;-0.20;100.00
1832;BME280;1680;48.106;11.708;2023-02-26T03:47:28;94796.44;;;-0.31;100.00
1832;BME280;1680;48.106;11.708;2023-02-26T03:49:58;94793.56;;;-0.36;100.00
1832;BME280;1680;48.106;11.708;2023-02-26T03:52:30;94787.69;;;-0.44;100.00
1832;BME280;1680;48.106;11.708;2023-02-26T03:55:03;94792.50;;;-0.41;100.00
1832;BME280;1680;48.106;11.708;2023-02-26T03:57:31;94798.63;;;-0.42;100.00
1832;BME280;1680;48.106;11.708;2023-02-26T03:59:59;94807.31;;;-0.43;100.00
1832;BME280;1680;48.106;11.708;2023-02-26T04:02:32;94804.53;;;-0.56;100.00
1832;BME280;1680;48.106;11.708;2023-02-26T04:05:05;94807.47;;;-0.67;100.00
1832;BME280;1680;48.106;11.708;2023-02-26T04:07:35;94808.13;;;-0.65;100.00
1832;BME280;1680;48.106;11.708;2023-02-26T04:10:03;94809.03;;;-0.58;100.00
1832;BME280;1680;48.106;11.708;2023-02-26T04:12:32;94813.25;;;-0.65;100.00
1832;BME280;1680;48.106;11.708;2023-02-26T04:15:00;94802.06;;;-0.72;100.00
1832;BME280;1680;48.106;11.708;2023-02-26T04:17:31;94789.47;;;-0.67;100.00
1832;BME280;1680;48.106;11.708;2023-02-26T04:19:58;94811.66;;;-0.66;100.00
1832;BME280;1680;48.106;11.708;2023-02-26T04:22:25;94809.09;;;-0.66;100.00
1832;BME280;1680;48.106;11.708;2023-02-26T04:24:52;94806.13;;;-0.78;100.00
1832;BME280;1680;48.106;11.708;2023-02-26T04:27:20;94762.72;;;-1.03;100.00
1832;BME280;1680;48.106;11.708;2023-02-26T04:29:47;94816.69;;;-0.73;100.00
1832;BME280;1680;48.106;11.708;2023-02-26T04:32:14;94820.25;;;-0.74;100.00
1832;BME280;1680;48.106;11.708;2023-02-26T04:34:43;94824.72;;;-0.90;100.00
1832;BME280;1680;48.106;11.708;2023-02-26T04:37:11;94820.13;;;-0.80;100.00
1832;BME280;1680;48.106;11.708;2023-02-26T04:39:38;94822.78;;;-0.88;100.00
1832;BME280;1680;48.106;11.708;2023-02-26T04:42:05;94824.72;;;-0.90;100.00
1832;BME280;1680;48.106;11.708;2023-02-26T04:44:32;94826.50;;;-0.91;100.00
1832;BME280;1680;48.106;11.708;2023-02-26T04:47:00;94822.19;;;-0.98;100.00
1832;BME280;1680;48.106;11.708;2023-02-26T04:49:27;94825.13;;;-1.09;100.00
1832;BME280;1680;48.106;11.708;2023-02-26T04:51:56;94825.94;;;-1.08;100.00
1832;BME280;1680;48.106;11.708;2023-02-26T04:54:24;94832.00;;;-1.01;100.00
1832;BME280;1680;48.106;11.708;2023-02-26T04:56:51;94835.91;;;-1.05;100.00
1832;BME280;1680;48.106;11.708;2023-02-26T04:59:18;94837.44;;;-0.97;100.00
1832;BME280;1680;48.106;11.708;2023-02-26T05:01:46;94838.63;;;-1.07;100.00
1832;BME280;1680;48.106;11.708;2023-02-26T05:04:13;94828.28;;;-1.21;100.00
1832;BME280;1680;48.106;11.708;2023-02-26T05:06:41;94840.94;;;-1.20;100.00
1832;BME280;1680;48.106;11.708;2023-02-26T05:09:09;94842.16;;;-1.08;100.00
1832;BME280;1680;48.106;11.708;2023-02-26T05:11:37;94843.19;;;-1.17;100.00
1832;BME280;1680;48.106;11.708;2023-02-26T05:14:04;94852.22;;;-1.21;100.00
1832;BME280;1680;48.106;11.708;2023-02-26T05:16:31;94856.75;;;-1.31;100.00
1832;BME280;1680;48.106;11.708;2023-02-26T05:18:59;94857.34;;;-1.21;100.00
1832;BME280;1680;48.106;11.708;2023-02-26T05:21:26;94862.94;;;-1.17;100.00
1832;BME280;1680;48.106;11.708;2023-02-26T05:23:53;94860.56;;;-1.19;100.00
1832;BME280;1680;48.106;11.708;2023-02-26T05:26:22;94851.75;;;-1.24;100.00
1832;BME280;1680;48.106;11.708;2023-02-26T05:28:50;94852.97;;;-1.43;100.00
1832;BME280;1680;48.106;11.708;2023-02-26T05:31:17;94873.16;;;-1.40;100.00
1832;BME280;1680;48.106;11.708;2023-02-26T05:33:45;94865.50;;;-1.48;100.00
1832;BME280;1680;48.106;11.708;2023-02-26T05:36:12;94872.53;;;-1.42;100.00
1832;BME280;1680;48.106;11.708;2023-02-26T05:38:39;94871.28;;;-1.54;100.00
1832;BME280;1680;48.106;11.708;2023-02-26T05:41:07;94858.56;;;-1.39;100.00
1832;BME280;1680;48.106;11.708;2023-02-26T05:43:35;94867.28;;;-1.56;100.00
1832;BME280;1680;48.106;11.708;2023-02-26T05:46:04;94856.84;;;-1.55;100.00
1832;BME280;1680;48.106;11.708;2023-02-26T05:48:31;94865.03;;;-1.51;100.00
1832;BME280;1680;48.106;11.708;2023-02-26T05:50:59;94864.13;;;-1.66;100.00
1832;BME280;1680;48.106;11.708;2023-02-26T05:53:27;94840.53;;;-1.86;100.00
1832;BME280;1680;48.106;11.708;2023-02-26T05:55:54;94881.00;;;-1.80;100.00
1832;BME280;1680;48.106;11.708;2023-02-26T05:58:21;94885.66;;;-1.75;100.00
1832;BME280;1680;48.106;11.708;2023-02-26T06:00:50;94895.09;;;-1.68;100.00
1832;BME280;1680;48.106;11.708;2023-02-26T06:03:17;94909.72;;;-1.68;100.00
1832;BME280;1680;48.106;11.708;2023-02-26T06:05:45;94911.13;;;-1.50;100.00
1832;BME280;1680;48.106;11.708;2023-02-26T06:08:12;94916.81;;;-1.24;100.00
1832;BME280;1680;48.106;11.708;2023-02-26T06:10:41;94906.13;;;-1.35;100.00
1832;BME280;1680;48.106;11.708;2023-02-26T06:13:08;94929.34;;;-1.21;100.00
1832;BME280;1680;48.106;11.708;2023-02-26T06:15:36;94847.94;;;-1.75;100.00
1832;BME280;1680;48.106;11.708;2023-02-26T06:18:05;94927.44;;;-1.27;100.00
1832;BME280;1680;48.106;11.708;2023-02-26T06:20:33;94932.25;;;-1.24;100.00
1832;BME280;1680;48.106;11.708;2023-02-26T06:23:00;94935.78;;;-1.17;100.00
1832;BME280;1680;48.106;11.708;2023-02-26T06:25:27;94940.91;;;-1.17;100.00
1832;BME280;1680;48.106;11.708;2023-02-26T06:27:54;94939.63;;;-1.13;100.00
1832;BME280;1680;48.106;11.708;2023-02-26T06:30:21;94942.72;;;-1.25;100.00
1832;BME280;1680;48.106;11.708;2023-02-26T06:32:49;94950.56;;;-1.27;100.00
1832;BME280;1680;48.106;11.708;2023-02-26T06:35:17;94939.84;;;-1.30;100.00
1832;BME280;1680;48.106;11.708;2023-02-26T06:37:45;94958.47;;;-1.28;100.00
1832;BME280;1680;48.106;11.708;2023-02-26T06:40:12;94964.44;;;-1.36;100.00
1832;BME280;1680;48.106;11.708;2023-02-26T06:42:39;94967.00;;;-1.28;100.00
1832;BME280;1680;48.106;11.708;2023-02-26T06:45:07;94964.06;;;-1.25;98.92
1832;BME280;1680;48.106;11.708;2023-02-26T06:47:35;94971.97;;;-1.34;99.67
1832;BME280;1680;48.106;11.708;2023-02-26T06:50:02;94978.09;;;-1.35;99.26
1832;BME280;1680;48.106;11.708;2023-02-26T06:52:32;94968.63;;;-1.35;98.89
1832;BME280;1680;48.106;11.708;2023-02-26T06:54:59;94988.53;;;-1.29;99.91
1832;BME280;1680;48.106;11.708;2023-02-26T06:57:26;94992.03;;;-1.14;98.84
1832;BME280;1680;48.106;11.708;2023-02-26T06:59:53;95000.81;;;-1.00;99.18
1832;BME280;1680;48.106;11.708;2023-02-26T07:02:21;95004.34;;;-0.94;99.62
1832;BME280;1680;48.106;11.708;2023-02-26T07:04:49;94993.31;;;-0.72;99.20
1832;BME280;1680;48.106;11.708;2023-02-26T07:07:16;95008.56;;;-0.62;97.41
1832;BME280;1680;48.106;11.708;2023-02-26T07:09:45;95001.88;;;-0.79;96.59
1832;BME280;1680;48.106;11.708;2023-02-26T07:12:12;94996.56;;;-0.78;97.13
1832;BME280;1680;48.106;11.708;2023-02-26T07:14:39;94996.00;;;-0.96;97.39
1832;BME280;1680;48.106;11.708;2023-02-26T07:17:07;95010.16;;;-0.99;97.26
1832;BME280;1680;48.106;11.708;2023-02-26T07:19:34;95008.16;;;-0.82;97.00
1832;BME280;1680;48.106;11.708;2023-02-26T07:22:02;95010.28;;;-0.85;96.20
1832;BME280;1680;48.106;11.708;2023-02-26T07:24:29;95017.63;;;-0.82;96.49
1832;BME280;1680;48.106;11.708;2023-02-26T07:26:57;95018.59;;;-0.75;96.13
1832;BME280;1680;48.106;11.708;2023-02-26T07:29:25;95024.97;;;-0.55;95.78
1832;BME280;1680;48.106;11.708;2023-02-26T07:31:52;95016.25;;;-0.54;96.91
1832;BME280;1680;48.106;11.708;2023-02-26T07:34:20;95027.47;;;-0.47;96.10
1832;BME280;1680;48.106;11.708;2023-02-26T07:36:48;95013.81;;;-0.86;95.02
1832;BME280;1680;48.106;11.708;2023-02-26T07:39:15;95011.88;;;-0.84;95.96
1832;BME280;1680;48.106;11.708;2023-02-26T07:41:42;95029.56;;;-0.89;95.78
1832;BME280;1680;48.106;11.708;2023-02-26T07:44:11;95035.03;;;-0.84;95.35
1832;BME280;1680;48.106;11.708;2023-02-26T07:46:38;95040.97;;;-0.76;95.03
1832;BME280;1680;48.106;11.708;2023-02-26T07:49:06;95037.13;;;-0.49;94.72
1832;BME280;1680;48.106;11.708;2023-02-26T07:51:34;95045.63;;;-0.71;94.32
1832;BME280;1680;48.106;11.708;2023-02-26T07:54:02;95038.47;;;-0.53;95.27
1832;BME280;1680;48.106;11.708;2023-02-26T07:56:29;95054.09;;;-0.24;94.19
1832;BME280;1680;48.106;11.708;2023-02-26T07:58:56;95054.47;;;-0.05;91.75
1832;BME280;1680;48.106;11.708;2023-02-26T08:01:25;95050.44;;;-0.07;90.00
1832;BME280;1680;48.106;11.708;2023-02-26T08:03:52;95059.63;;;-0.05;91.39
1832;BME280;1680;48.106;11.708;2023-02-26T08:06:19;95054.91;;;0.06;91.61
1832;BME280;1680;48.106;11.708;2023-02-26T08:08:46;95063.19;;;0.16;92.02
1832;BME280;1680;48.106;11.708;2023-02-26T08:11:14;95066.66;;;0.01;90.17
1832;BME280;1680;48.106;11.708;2023-02-26T08:13:41;95077.72;;;0.09;91.04
1832;BME280;1680;48.106;11.708;2023-02-26T08:16:08;95082.94;;;0.01;92.03
1832;BME280;1680;48.106;11.708;2023-02-26T08:18:37;95085.56;;;-0.06;91.36
1832;BME280;1680;48.106;11.708;2023-02-26T08:21:04;95076.28;;;0.15;90.85
1832;BME280;1680;48.106;11.708;2023-02-26T08:23:32;95082.63;;;0.27;89.39
1832;BME280;1680;48.106;11.708;2023-02-26T08:26:00;95082.88;;;0.09;89.86
1832;BME280;1680;48.106;11.708;2023-02-26T08:28:27;95080.84;;;0.27;91.06
1832;BME280;1680;48.106;11.708;2023-02-26T08:30:55;95086.59;;;0.37;90.27
1832;BME280;1680;48.106;11.708;2023-02-26T08:33:22;95088.06;;;0.32;90.17
1832;BME280;1680;48.106;11.708;2023-02-26T08:35:51;95084.88;;;0.52;90.00
1832;BME280;1680;48.106;11.708;2023-02-26T08:38:20;95044.63;;;-0.02;89.55
1832;BME280;1680;48.106;11.708;2023-02-26T08:40:48;95103.78;;;0.45;88.84
1832;BME280;1680;48.106;11.708;2023-02-26T08:43:16;95104.28;;;0.40;88.89
1832;BME280;1680;48.106;11.708;2023-02-26T08:45:44;95114.03;;;0.30;90.53
1832;BME280;1680;48.106;11.708;2023-02-26T08:48:12;95111.06;;;0.41;90.69
1832;BME280;1680;48.106;11.708;2023-02-26T08:50:39;95101.91;;;0.61;89.90
1832;BME280;1680;48.106;11.708;2023-02-26T08:53:08;95063.22;;;0.39;89.09
1832;BME280;1680;48.106;11.708;2023-02-26T08:55:36;95109.75;;;0.68;89.15
1832;BME280;1680;48.106;11.708;2023-02-26T08:58:03;95113.06;;;0.54;89.83
1832;BME280;1680;48.106;11.708;2023-02-26T09:00:30;95121.78;;;0.75;88.65
1832;BME280;1680;48.106;11.708;2023-02-26T09:02:58;95129.13;;;0.64;88.18
1832;BME280;1680;48.106;11.708;2023-02-26T09:05:25;95132.22;;;0.59;89.70
1832;BME280;1680;48.106;11.708;2023-02-26T09:07:52;95131.47;;;0.51;88.72
1832;BME280;1680;48.106;11.708;2023-02-26T09:13:43;95134.50;;;0.77;89.49
1832;BME280;1680;48.106;11.708;2023-02-26T09:16:10;95147.41;;;0.77;89.68
1832;BME280;1680;48.106;11.708;2023-02-26T09:18:38;95147.28;;;0.70;89.09
1832;BME280;1680;48.106;11.708;2023-02-26T09:21:05;95149.13;;;0.84;89.53
1832;BME280;1680;48.106;11.708;2023-02-26T09:23:32;95158.06;;;0.96;87.95
1832;BME280;1680;48.106;11.708;2023-02-26T09:25:59;95165.09;;;1.24;87.26
1832;BME280;1680;48.106;11.708;2023-02-26T09:28:27;95159.88;;;1.47;85.34
1832;BME280;1680;48.106;11.708;2023-02-26T09:30:55;95157.63;;;1.44;84.87
1832;BME280;1680;48.106;11.708;2023-02-26T09:33:22;95154.78;;;1.39;83.92
1832;BME280;1680;48.106;11.708;2023-02-26T09:35:50;95159.97;;;1.53;84.95
1832;BME280;1680;48.106;11.708;2023-02-26T09:38:18;95171.31;;;1.95;85.52
1832;BME280;1680;48.106;11.708;2023-02-26T09:40:48;95175.56;;;2.17;82.16
1832;BME280;1680;48.106;11.708;2023-02-26T09:43:39;95179.94;;;2.02;82.14
1832;BME280;1680;48.106;11.708;2023-02-26T09:46:22;95175.88;;;2.08;82.06
1832;BME280;1680;48.106;11.708;2023-02-26T09:48:54;95182.88;;;2.28;83.75
1832;BME280;1680;48.106;11.708;2023-02-26T09:51:23;95185.56;;;2.20;83.90
1832;BME280;1680;48.106;11.708;2023-02-26T09:53:52;95192.75;;;2.25;83.58
1832;BME280;1680;48.106;11.708;2023-02-26T09:56:22;95187.81;;;2.09;81.27
1832;BME280;1680;48.106;11.708;2023-02-26T09:58:50;95193.78;;;1.81;82.95
1832;BME280;1680;48.106;11.708;2023-02-26T10:01:26;95189.28;;;1.75;84.88
1832;BME280;1680;48.106;11.708;2023-02-26T10:04:06;95149.63;;;1.39;84.93
1832;BME280;1680;48.106;11.708;2023-02-26T10:06:42;95184.13;;;1.60;85.62
1832;BME280;1680;48.106;11.708;2023-02-26T10:09:25;95191.56;;;1.92;85.55
1832;BME280;1680;48.106;11.708;2023-02-26T10:12:01;95190.22;;;2.10;85.61
1832;BME280;1680;48.106;11.708;2023-02-26T10:14:33;95200.00;;;2.29;83.70
1832;BME280;1680;48.106;11.708;2023-02-26T10:17:07;95182.59;;;2.38;81.75
1832;BME280;1680;48.106;11.708;2023-02-26T10:19:42;95182.22;;;2.41;82.50
1832;BME280;1680;48.106;11.708;2023-02-26T10:22:15;95188.84;;;2.43;82.13
1832;BME280;1680;48.106;11.708;2023-02-26T10:24:47;95176.03;;;2.56;83.00
1832;BME280;1680;48.106;11.708;2023-02-26T10:27:19;95181.38;;;2.69;83.56
1832;BME280;1680;48.106;11.708;2023-02-26T10:29:50;95183.53;;;2.86;83.11
1832;BME280;1680;48.106;11.708;2023-02-26T10:32:25;95183.84;;;2.77;80.18
1832;BME280;1680;48.106;11.708;2023-02-26T10:34:56;95182.81;;;2.57;82.21
1832;BME280;1680;48.106;11.708;2023-02-26T10:37:35;95187.28;;;2.84;83.08
1832;BME280;1680;48.106;11.708;2023-02-26T10:40:12;95172.75;;;2.48;82.25
1832;BME280;1680;48.106;11.708;2023-02-26T10:42:43;95160.81;;;2.47;83.83
1832;BME280;1680;48.106;11.708;2023-02-26T10:45:26;95195.63;;;2.30;82.53
1832;BME280;1680;48.106;11.708;2023-02-26T10:48:10;95186.81;;;2.24;84.62
1832;BME280;1680;48.106;11.708;2023-02-26T10:50:48;95184.22;;;2.24;84.18
1832;BME280;1680;48.106;11.708;2023-02-26T10:53:15;95170.56;;;2.30;83.66
1832;BME280;1680;48.106;11.708;2023-02-26T10:55:45;95170.25;;;2.40;84.00
1832;BME280;1680;48.106;11.708;2023-02-26T10:58:16;95166.06;;;2.53;83.97
1832;BME280;1680;48.106;11.708;2023-02-26T11:00:45;95151.63;;;2.44;84.12
1832;BME280;1680;48.106;11.708;2023-02-26T11:03:16;95157.44;;;2.67;84.09
1832;BME280;1680;48.106;11.708;2023-02-26T11:05:45;95150.78;;;2.79;84.50
1832;BME280;1680;48.106;11.708;2023-02-26T11:08:17;95150.31;;;2.69;83.92
1832;BME280;1680;48.106;11.708;2023-02-26T11:10:49;95156.91;;;2.36;84.30
1832;BME280;1680;48.106;11.708;2023-02-26T11:13:17;95144.72;;;2.30;85.02
1832;BME280;1680;48.106;11.708;2023-02-26T11:15:47;95142.13;;;2.16;85.15
1832;BME280;1680;48.106;11.708;2023-02-26T11:18:19;95150.16;;;2.06;85.51
1832;BME280;1680;48.106;11.708;2023-02-26T11:20:48;95152.50;;;1.73;86.31
1832;BME280;1680;48.106;11.708;2023-02-26T11:23:17;95162.72;;;1.95;85.77
1832;BME280;1680;48.106;11.708;2023-02-26T11:25:52;95155.44;;;1.98;84.22
1832;BME280;1680;48.106;11.708;2023-02-26T11:28:22;95160.03;;;2.17;84.35
1832;BME280;1680;48.106;11.708;2023-02-26T11:30:51;95179.53;;;2.49;85.93
1832;BME280;1680;48.106;11.708;2023-02-26T11:33:23;95180.94;;;2.66;84.15
1832;BME280;1680;48.106;11.708;2023-02-26T11:35:58;95188.56;;;2.53;85.74
1832;BME280;1680;48.106;11.708;2023-02-26T11:38:27;95190.38;;;2.23;89.07
1832;BME280;1680;48.106;11.708;2023-02-26T11:40:56;95195.03;;;2.13;90.15
1832;BME280;1680;48.106;11.708;2023-02-26T11:43:25;95188.84;;;2.29;91.89
1832;BME280;1680;48.106;11.708;2023-02-26T11:46:00;95194.56;;;2.24;92.23
1832;BME280;1680;48.106;11.708;2023-02-26T11:48:39;95195.91;;;2.35;91.42
1832;BME280;1680;48.106;11.708;2023-02-26T11:51:10;95196.16;;;2.25;90.33
1832;BME280;1680;48.106;11.708;2023-02-26T11:53:43;95198.75;;;2.25;90.62
1832;BME280;1680;48.106;11.708;2023-02-26T11:56:19;95198.03;;;2.17;90.67
1832;BME280;1680;48.106;11.708;2023-02-26T11:58:51;95190.75;;;2.56;90.08
1832;BME280;1680;48.106;11.708;2023-02-26T12:01:19;95199.84;;;2.66;88.57
1832;BME280;1680;48.106;11.708;2023-02-26T12:03:50;95196.47;;;2.66;87.70
1832;BME280;1680;48.106;11.708;2023-02-26T12:06:19;95206.25;;;2.85;88.67
1832;BME280;1680;48.106;11.708;2023-02-26T12:08:49;95186.03;;;2.59;89.36
1832;BME280;1680;48.106;11.708;2023-02-26T12:11:42;95204.03;;;2.67;89.44
1832;BME280;1680;48.106;11.708;2023-02-26T12:14:33;95196.63;;;2.64;89.88
1832;BME280;1680;48.106;11.708;2023-02-26T12:17:14;95195.94;;;2.56;90.61
1832;BME280;1680;48.106;11.708;2023-02-26T12:19:51;95198.25;;;2.15;89.09
1832;BME280;1680;48.106;11.708;2023-02-26T12:22:33;95197.88;;;1.89;88.10
1832;BME280;1680;48.106;11.708;2023-02-26T12:25:20;95212.31;;;1.70;87.79
1832;BME280;1680;48.106;11.708;2023-02-26T12:28:12;95215.69;;;1.70;88.88
1832;BME280;1680;48.106;11.708;2023-02-26T12:30:57;95208.13;;;2.12;87.20
1832;BME280;1680;48.106;11.708;2023-02-26T12:33:37;95217.16;;;2.01;85.62
1832;BME280;1680;48.106;11.708;2023-02-26T12:36:25;95220.72;;;2.00;86.32
1832;BME280;1680;48.106;11.708;2023-02-26T12:39:04;95215.78;;;2.05;84.17
1832;BME280;1680;48.106;11.708;2023-02-26T12:41:45;95205.31;;;2.57;91.88
1832;BME280;1680;48.106;11.708;2023-02-26T12:44:29;95199.84;;;2.66;81.40
1832;BME280;1680;48.106;11.708;2023-02-26T12:47:21;95206.88;;;2.72;80.13
1832;BME280;1680;48.106;11.708;2023-02-26T12:50:07;95196.53;;;2.72;79.99
1832;BME280;1680;48.106;11.708;2023-02-26T12:52:58;95179.94;;;2.87;80.88
1832;BME280;1680;48.106;11.708;2023-02-26T12:55:33;95182.75;;;3.07;82.05
1832;BME280;1680;48.106;11.708;2023-02-26T12:58:22;95178.13;;;3.02;78.62
1832;BME280;1680;48.106;11.708;2023-02-26T13:01:02;95169.63;;;3.08;80.87
1832;BME280;1680;48.106;11.708;2023-02-26T13:03:59;95168.56;;;3.03;77.58
1832;BME280;1680;48.106;11.708;2023-02-26T13:06:54;95171.06;;;3.17;77.46
1832;BME280;1680;48.106;11.708;2023-02-26T13:09:31;95168.59;;;3.30;79.12
1832;BME280;1680;48.106;11.708;2023-02-26T13:12:06;95181.00;;;3.62;81.62
1832;BME280;1680;48.106;11.708;2023-02-26T13:14:47;95170.13;;;3.73;79.59
1832;BME280;1680;48.106;11.708;2023-02-26T13:17:23;95171.69;;;4.01;79.24
1832;BME280;1680;48.106;11.708;2023-02-26T13:19:55;95174.84;;;3.90;78.71
1832;BME280;1680;48.106;11.708;2023-02-26T13:22:27;95179.53;;;3.74;78.22
1832;BME280;1680;48.106;11.708;2023-02-26T13:25:00;95176.34;;;3.79;77.14
1832;BME280;1680;48.106;11.708;2023-02-26T13:27:31;95186.25;;;3.69;78.20
1832;BME280;1680;48.106;11.708;2023-02-26T13:30:19;95192.63;;;3.66;75.33
1832;BME280;1680;48.106;11.708;2023-02-26T13:32:50;95187.84;;;3.70;74.40
1832;BME280;1680;48.106;11.708;2023-02-26T13:35:24;95179.97;;;3.84;74.77
1832;BME280;1680;48.106;11.708;2023-02-26T13:37:54;95186.47;;;4.01;75.34
1832;BME280;1680;48.106;11.708;2023-02-26T13:40:42;95183.66;;;3.69;76.39